Bookmark and Share
Track history (hours):
 

Morning Lady

Last reported at 2014-Apr-20 03:28 UTC. Time now 2014-Apr-21 10:20 UTC.
Position N 35°60' W 005°07'.

Length 234 m; draft 9.6 m.

Type: Ship. MMSI: 356473000.

NotesDate/timePositionNaut miles runAvg speedWind from/ knotsBaromVisibWave heightAir tempDewpointWater temp
2014-Apr-20 03:28N 35°60' W 005°07'1718.9
2014-Apr-20 02:33N 35°58' W 005°28'1715.3
2014-Apr-20 01:25N 35°53' W 005°49'1315.6
2014-Apr-20 00:34N 35°53' W 006°05'20914.4
2014-Apr-19 10:06N 37°41' W 009°49'66315.6
2014-Apr-17 15:33N 48°24' W 006°11'1515.1
2014-Apr-17 14:33N 48°37' W 005°60'16315.7
2014-Apr-17 04:11N 50°04' W 002°28'1118.0
2014-Apr-17 03:32N 50°07' W 002°11'1818.8
2014-Apr-17 02:33N 50°17' W 001°46'1818.3
2014-Apr-17 01:33N 50°26' W 001°22'1717.3
2014-Apr-17 00:33N 50°36' W 000°59'1110.6
2014-Apr-16 23:33N 50°45' W 001°07'1010.0
2014-Apr-16 22:34N 50°51' W 001°20'3 2.9
2014-Apr-16 21:32N 50°53' W 001°24'0 0.0
2014-Apr-16 20:29N 50°53' W 001°24'0 0.0
2014-Apr-16 19:32N 50°53' W 001°24'0 0.0
2014-Apr-16 18:32N 50°53' W 001°24'0 0.0
2014-Apr-16 17:32N 50°53' W 001°24'0 0.0
2014-Apr-16 16:32N 50°53' W 001°24'0 0.0
2014-Apr-16 15:32N 50°53' W 001°24'0 0.0
2014-Apr-16 14:32N 50°53' W 001°24'0 0.0
2014-Apr-16 13:32N 50°53' W 001°24'0 0.0
2014-Apr-16 12:32N 50°53' W 001°24'0 0.0
2014-Apr-16 11:32N 50°53' W 001°24'0 0.0
2014-Apr-16 10:32N 50°53' W 001°24'0 0.0
2014-Apr-16 09:32N 50°53' W 001°24'0 0.0
2014-Apr-16 08:32N 50°53' W 001°24'0 0.0
2014-Apr-16 07:32N 50°53' W 001°24'0 0.0
2014-Apr-16 06:32N 50°53' W 001°24'0 0.0
2014-Apr-16 05:32N 50°53' W 001°24'0 0.0
2014-Apr-16 04:32N 50°53' W 001°24'0 0.0
2014-Apr-16 03:32N 50°53' W 001°24'0 0.0
2014-Apr-16 02:32N 50°53' W 001°24'0 0.0
2014-Apr-16 01:32N 50°53' W 001°24'0 0.0
2014-Apr-16 00:32N 50°53' W 001°24'0 0.0
2014-Apr-15 23:32N 50°53' W 001°24'0 0.0
2014-Apr-15 22:32N 50°53' W 001°24'0 0.0
2014-Apr-15 21:29N 50°53' W 001°24'0 0.0
2014-Apr-15 20:32N 50°53' W 001°24'0 0.0
2014-Apr-15 19:32N 50°53' W 001°24'0 0.0
2014-Apr-15 18:32N 50°53' W 001°24'0 0.0
2014-Apr-15 17:32N 50°53' W 001°24'0 0.0
2014-Apr-15 16:32N 50°53' W 001°24'0 0.0
2014-Apr-15 15:32N 50°53' W 001°24'0 0.0
2014-Apr-15 14:32N 50°53' W 001°24'0 0.0
2014-Apr-15 12:32N 50°53' W 001°24'0 0.0
2014-Apr-15 11:32N 50°53' W 001°24'0 0.0
2014-Apr-15 10:32N 50°53' W 001°24'0 0.0
2014-Apr-15 09:32N 50°53' W 001°24'0 0.0
2014-Apr-15 08:32N 50°53' W 001°24'0 0.0
2014-Apr-15 07:32N 50°53' W 001°24'0 0.0
2014-Apr-15 06:32N 50°53' W 001°24'0 0.0
2014-Apr-15 05:32N 50°53' W 001°24'6 3.1
2014-Apr-15 03:34N 50°48' W 001°17'1111.2
2014-Apr-15 02:34N 50°43' W 001°02'1110.5
2014-Apr-15 01:34N 50°34' W 000°55'3 3.1
2014-Apr-15 00:34N 50°33' W 000°50'4 4.1
2014-Apr-14 23:34N 50°34' W 000°44'1414.0
2014-Apr-14 22:33N 50°32' W 000°22'2914.7
2014-Apr-14 20:33N 50°34' E 000°24'1413.8
2014-Apr-14 19:34N 50°41' E 000°43'1515.2
2014-Apr-14 18:34N 50°50' E 001°02'1717.5
2014-Apr-14 17:34N 51°02' E 001°23'1918.7
2014-Apr-14 16:34N 51°13' E 001°46'1616.3
2014-Apr-14 15:34N 51°27' E 002°01'1514.8
2014-Apr-14 14:33N 51°39' E 002°15'22714.2
2014-Apr-13 22:33N 53°57' E 007°14'1313.3
2014-Apr-13 21:33N 53°59' E 007°36'1212.5
2014-Apr-13 20:33N 53°52' E 007°54'1312.8
2014-Apr-13 19:33N 53°45' E 008°12'1313.2
2014-Apr-13 18:34N 53°37' E 008°30'3 3.2
2014-Apr-13 17:34N 53°34' E 008°33'0 0.5
2014-Apr-13 16:32N 53°35' E 008°33'0 0.0
2014-Apr-13 15:32N 53°35' E 008°33'0 0.0
2014-Apr-13 14:32N 53°35' E 008°33'0 0.0
2014-Apr-13 13:32N 53°35' E 008°33'0 0.0
2014-Apr-13 12:32N 53°35' E 008°33'0 0.0
2014-Apr-13 11:32N 53°35' E 008°33'0 0.0
2014-Apr-13 10:32N 53°35' E 008°33'0 0.0
2014-Apr-13 09:32N 53°35' E 008°33'0 0.0
2014-Apr-13 08:32N 53°35' E 008°33'0 0.0
2014-Apr-13 07:32N 53°35' E 008°33'0 0.0
2014-Apr-13 06:32N 53°35' E 008°33'0 0.0
2014-Apr-13 05:32N 53°35' E 008°33'0 0.0
2014-Apr-13 04:32N 53°35' E 008°33'0 0.0
2014-Apr-13 03:32N 53°35' E 008°33'0 0.0
2014-Apr-13 02:32N 53°35' E 008°33'0 0.0
2014-Apr-13 01:32N 53°35' E 008°33'0 0.0
2014-Apr-13 00:32N 53°35' E 008°33'0 0.0
2014-Apr-12 23:32N 53°35' E 008°33'0 0.0
2014-Apr-12 22:32N 53°35' E 008°33'0 0.0
2014-Apr-12 21:32N 53°35' E 008°33'0 0.0
2014-Apr-12 20:32N 53°35' E 008°33'0 0.0
2014-Apr-12 19:32N 53°35' E 008°33'0 0.0
2014-Apr-12 18:32N 53°35' E 008°33'0 0.0
2014-Apr-12 17:32N 53°35' E 008°33'0 0.0
2014-Apr-12 16:32N 53°35' E 008°33'0 0.0
2014-Apr-12 15:32N 53°35' E 008°33'0 0.0
2014-Apr-12 14:32N 53°35' E 008°33'0 0.0
2014-Apr-12 13:32N 53°35' E 008°33'0 0.0
2014-Apr-12 12:32N 53°35' E 008°33'0 0.0
2014-Apr-12 11:32N 53°35' E 008°33'0 0.0
2014-Apr-12 10:32N 53°35' E 008°33'0 0.0
2014-Apr-12 09:32N 53°35' E 008°33'0 0.0
2014-Apr-12 08:32N 53°35' E 008°33'0 0.0
2014-Apr-12 07:32N 53°35' E 008°33'0 0.0
2014-Apr-12 06:32N 53°35' E 008°33'0 0.0
2014-Apr-12 05:32N 53°35' E 008°33'0 0.0
2014-Apr-12 04:32N 53°35' E 008°33'0 0.0
2014-Apr-12 03:32N 53°35' E 008°33'0 0.0
2014-Apr-12 02:32N 53°35' E 008°33'0 0.0
2014-Apr-12 01:32N 53°35' E 008°33'0 0.0
2014-Apr-12 00:32N 53°35' E 008°33'0 0.0
2014-Apr-11 23:32N 53°35' E 008°33'0 0.0
2014-Apr-11 22:32N 53°35' E 008°33'0 0.0
2014-Apr-11 21:32N 53°35' E 008°33'0 0.0
2014-Apr-11 20:32N 53°35' E 008°33'0 0.0
2014-Apr-11 19:32N 53°35' E 008°33'0 0.0
2014-Apr-11 18:32N 53°35' E 008°33'0 0.0
2014-Apr-11 17:32N 53°35' E 008°33'0 0.0
2014-Apr-11 16:32N 53°35' E 008°33'0 0.0
2014-Apr-11 15:32N 53°35' E 008°33'0 0.0
2014-Apr-11 14:32N 53°35' E 008°33'0 0.0
2014-Apr-11 13:32N 53°35' E 008°33'0 0.0
2014-Apr-11 12:32N 53°35' E 008°33'0 0.0
2014-Apr-11 11:32N 53°35' E 008°33'0 0.0
2014-Apr-11 10:32N 53°35' E 008°33'0 0.0
2014-Apr-11 09:32N 53°35' E 008°33'0 0.0
2014-Apr-11 08:32N 53°35' E 008°33'0 0.0
2014-Apr-11 07:32N 53°35' E 008°33'0 0.0
2014-Apr-11 06:32N 53°35' E 008°33'0 0.0
2014-Apr-11 05:32N 53°35' E 008°33'0 0.0
2014-Apr-11 04:32N 53°35' E 008°33'0 0.0
2014-Apr-11 03:32N 53°35' E 008°33'0 0.0
2014-Apr-11 02:32N 53°35' E 008°33'0 0.5
2014-Apr-11 01:32N 53°34' E 008°33'2 1.9
2014-Apr-11 00:34N 53°36' E 008°31'1312.8
2014-Apr-10 23:33N 53°44' E 008°14'1313.1
2014-Apr-10 22:34N 53°51' E 007°56'1110.8
2014-Apr-10 21:33N 53°55' E 007°39'1111.4
2014-Apr-10 20:33N 54°05' E 007°30'3 2.8
2014-Apr-10 19:33N 54°06' E 007°26'1 1.3
2014-Apr-10 18:33N 54°06' E 007°24'1 1.3
2014-Apr-10 17:33N 54°06' E 007°21'2 2.0
2014-Apr-10 16:33N 54°06' E 007°18'2 1.7
2014-Apr-10 15:34N 54°06' E 007°15'3 0.4
2014-Apr-10 08:33N 54°03' E 007°13'1 0.9
2014-Apr-10 07:33N 54°03' E 007°11'2 2.4
2014-Apr-10 06:33N 54°04' E 007°15'4 3.6
2014-Apr-10 05:33N 54°05' E 007°21'2 2.0
2014-Apr-10 04:34N 54°06' E 007°18'2 1.8
2014-Apr-10 03:33N 54°06' E 007°15'  

Dump ship's entire track history

sailing weather and tide predictions

Morning Lady — 3FKC3 — position and weather